createdAt,value
2018-09-14T00:01:10.341Z,4.63
2018-09-14T00:03:38.843Z,4.73
2018-09-14T00:06:07.448Z,4.83
2018-09-14T00:08:35.910Z,4.67
2018-09-14T00:11:04.372Z,4.90
2018-09-14T00:13:32.836Z,4.27
2018-09-14T00:16:01.325Z,4.53
2018-09-14T00:18:29.796Z,4.90
2018-09-14T00:20:58.336Z,4.40
2018-09-14T00:23:26.824Z,4.27
2018-09-14T00:25:55.325Z,4.50
2018-09-14T00:28:24.092Z,4.40
2018-09-14T00:30:52.559Z,4.67
2018-09-14T00:33:21.005Z,4.50
2018-09-14T00:35:49.557Z,4.60
2018-09-14T00:38:18.084Z,4.70
2018-09-14T00:40:46.567Z,4.47
2018-09-14T00:43:15.393Z,4.10
2018-09-14T00:45:44.216Z,4.13
2018-09-14T00:48:12.959Z,4.30
2018-09-14T00:50:41.395Z,4.37
2018-09-14T00:53:09.874Z,4.47
2018-09-14T00:55:38.457Z,4.30
2018-09-14T00:58:06.953Z,3.73
2018-09-14T01:00:35.532Z,4.20
2018-09-14T01:03:04.037Z,3.80
2018-09-14T01:05:32.480Z,4.13
2018-09-14T01:08:00.964Z,4.43
2018-09-14T01:10:29.424Z,4.27
2018-09-14T01:12:58.024Z,4.47
2018-09-14T01:15:26.533Z,3.97
2018-09-14T01:17:54.989Z,3.80
2018-09-14T01:20:23.500Z,3.83
2018-09-14T01:22:51.953Z,3.87
2018-09-14T01:25:20.404Z,3.63
2018-09-14T01:27:49.983Z,4.13
2018-09-14T01:30:18.509Z,3.70
2018-09-14T01:32:46.990Z,4.17
2018-09-14T01:35:20.819Z,3.80
2018-09-14T01:37:49.333Z,3.80
2018-09-14T01:40:17.866Z,4.13
2018-09-14T01:42:46.740Z,3.60
2018-09-14T01:45:15.212Z,3.90
2018-09-14T01:47:43.771Z,3.87
2018-09-14T01:50:12.341Z,4.23
2018-09-14T01:52:40.783Z,3.77
2018-09-14T01:55:09.264Z,3.83
2018-09-14T01:57:37.714Z,3.87
2018-09-14T02:00:06.799Z,3.77
2018-09-14T02:02:35.264Z,3.53
2018-09-14T02:05:03.988Z,3.53
2018-09-14T02:07:32.483Z,3.30
2018-09-14T02:10:00.935Z,3.50
2018-09-14T02:12:29.409Z,3.60
2018-09-14T02:14:58.028Z,3.60
2018-09-14T02:17:26.537Z,3.77
2018-09-14T02:19:55.127Z,3.60
2018-09-14T02:22:23.624Z,3.77
2018-09-14T02:24:57.621Z,3.50
2018-09-14T02:27:26.123Z,3.43
2018-09-14T02:29:54.646Z,3.27
2018-09-14T02:32:23.142Z,3.37
2018-09-14T02:34:51.665Z,3.27
2018-09-14T02:37:20.129Z,3.23
2018-09-14T02:39:48.687Z,3.43
2018-09-14T02:42:17.223Z,3.27
2018-09-14T02:44:45.688Z,3.40
2018-09-14T02:47:14.128Z,3.40
2018-09-14T02:49:42.600Z,3.60
2018-09-14T02:52:11.065Z,3.50
2018-09-14T02:54:39.584Z,3.60
2018-09-14T02:57:08.078Z,4.00
2018-09-14T02:59:36.575Z,3.50
2018-09-14T03:02:07.389Z,3.73
2018-09-14T03:04:36.008Z,3.90
2018-09-14T03:07:04.824Z,3.70
2018-09-14T03:09:33.605Z,3.80
2018-09-14T03:12:02.141Z,4.03
2018-09-14T03:14:30.736Z,3.60
2018-09-14T03:17:02.394Z,3.90
2018-09-14T03:19:30.892Z,4.37
2018-09-14T03:21:59.420Z,4.10
2018-09-14T03:24:27.938Z,4.20
2018-09-14T03:26:56.523Z,4.40
2018-09-14T03:29:25.048Z,4.20
2018-09-14T03:31:53.568Z,3.70
2018-09-14T03:34:22.061Z,3.73
2018-09-14T03:36:50.651Z,4.00
2018-09-14T03:39:19.212Z,3.43
2018-09-14T03:41:47.725Z,3.30
2018-09-14T03:44:16.250Z,3.47
2018-09-14T03:46:44.728Z,3.83
2018-09-14T03:49:13.253Z,4.47
2018-09-14T03:51:41.746Z,3.80
2018-09-14T03:54:10.232Z,3.53
2018-09-14T03:56:38.697Z,4.17
2018-09-14T03:59:07.185Z,3.47
2018-09-14T04:01:35.696Z,3.57
2018-09-14T04:04:04.237Z,3.60
2018-09-14T04:06:32.874Z,3.70
2018-09-14T04:09:01.359Z,3.43
2018-09-14T04:11:29.874Z,3.00
2018-09-14T04:13:58.573Z,2.90
2018-09-14T04:16:27.099Z,3.37
2018-09-14T04:19:01.217Z,2.90
2018-09-14T04:21:34.693Z,3.07
2018-09-14T04:24:03.364Z,3.20
2018-09-14T04:26:31.820Z,3.33
2018-09-14T04:29:03.679Z,3.30
2018-09-14T04:31:32.188Z,3.37
2018-09-14T04:34:00.709Z,3.30
2018-09-14T04:36:29.189Z,3.63
2018-09-14T04:38:57.764Z,3.30
2018-09-14T04:41:26.306Z,3.50
2018-09-14T04:43:56.794Z,3.23
2018-09-14T04:46:25.553Z,3.37
2018-09-14T04:48:54.076Z,3.47
2018-09-14T04:51:22.708Z,3.40
2018-09-14T04:53:52.242Z,3.47
2018-09-14T04:56:22.038Z,3.67
2018-09-14T04:58:51.636Z,3.43
2018-09-14T05:01:20.172Z,3.20
2018-09-14T05:03:48.710Z,3.13
2018-09-14T05:06:17.598Z,3.70
2018-09-14T05:08:46.073Z,3.67
2018-09-14T05:11:14.560Z,3.80
2018-09-14T05:13:47.009Z,3.37
2018-09-14T05:16:17.553Z,3.43
2018-09-14T05:18:46.181Z,3.70
2018-09-14T05:21:14.858Z,4.03
2018-09-14T05:23:43.373Z,4.50
2018-09-14T05:26:11.880Z,5.53
2018-09-14T05:28:40.425Z,4.70
2018-09-14T05:31:08.950Z,6.20
2018-09-14T05:33:37.552Z,6.00
2018-09-14T05:36:08.151Z,6.53
2018-09-14T05:38:40.111Z,6.73
2018-09-14T05:41:12.652Z,6.77
2018-09-14T05:43:41.267Z,7.50
2018-09-14T05:46:11.904Z,8.00
2018-09-14T05:48:40.824Z,9.77
2018-09-14T05:51:09.412Z,9.70
2018-09-14T05:53:37.915Z,10.27
2018-09-14T05:56:06.470Z,10.20
2018-09-14T05:58:35.031Z,10.50
2018-09-14T06:01:03.534Z,11.90
2018-09-14T06:03:32.053Z,11.40
2018-09-14T06:06:00.609Z,12.87
2018-09-14T06:08:29.189Z,11.70
2018-09-14T06:10:57.772Z,12.50
2018-09-14T06:13:26.319Z,12.10
2018-09-14T06:15:54.881Z,12.17
2018-09-14T06:18:23.479Z,12.40
2018-09-14T06:20:52.005Z,13.27
2018-09-14T06:23:22.924Z,13.20
2018-09-14T06:25:51.818Z,13.30
2018-09-14T06:28:20.354Z,13.57
2018-09-14T06:30:48.949Z,13.50
2018-09-14T06:33:17.560Z,14.07
2018-09-14T06:35:47.456Z,14.57
2018-09-14T06:38:16.025Z,15.80
2018-09-14T06:40:46.604Z,16.03
2018-09-14T06:43:16.181Z,17.17
2018-09-14T06:45:46.789Z,17.07
2018-09-14T06:48:15.436Z,16.90
2018-09-14T06:50:49.991Z,15.37
2018-09-14T06:53:18.581Z,16.60
2018-09-14T06:56:24.244Z,15.63
2018-09-14T06:58:52.962Z,15.13
2018-09-14T07:01:21.471Z,14.67
2018-09-14T07:03:49.988Z,16.33
2018-09-14T07:06:18.523Z,16.00
2018-09-14T07:08:47.123Z,16.17
2018-09-14T07:11:15.877Z,17.10
2018-09-14T07:13:44.383Z,17.63
2018-09-14T07:16:12.902Z,16.87
2018-09-14T07:18:41.465Z,20.20
2018-09-14T07:21:10.111Z,21.93
2018-09-14T07:23:38.715Z,21.87
2018-09-14T07:26:07.273Z,21.73
2018-09-14T07:28:35.842Z,21.50
2018-09-14T07:31:04.520Z,20.90
2018-09-14T07:33:33.047Z,20.63
2018-09-14T07:36:01.590Z,21.83
2018-09-14T07:38:30.143Z,20.47
2018-09-14T07:40:58.868Z,22.40
2018-09-14T07:43:28.449Z,20.83
2018-09-14T07:45:57.285Z,21.87
2018-09-14T07:48:26.933Z,22.43
2018-09-14T07:50:55.614Z,22.97
2018-09-14T07:53:24.304Z,20.80
2018-09-14T07:55:53.132Z,21.47
2018-09-14T07:58:21.710Z,19.37
2018-09-14T08:00:50.336Z,20.50
2018-09-14T08:03:18.912Z,20.30
2018-09-14T08:05:47.445Z,18.97
2018-09-14T08:08:17.393Z,19.73
2018-09-14T08:10:45.924Z,20.53
2018-09-14T08:13:14.595Z,21.43
2018-09-14T08:15:44.233Z,22.17
2018-09-14T08:18:12.826Z,22.50
2018-09-14T08:20:42.425Z,22.13
2018-09-14T08:23:11.032Z,22.10
2018-09-14T08:25:39.576Z,22.47
2018-09-14T08:28:09.113Z,22.07
2018-09-14T08:30:37.784Z,20.97
2018-09-14T08:33:06.411Z,20.27
2018-09-14T08:35:34.953Z,20.20
2018-09-14T08:38:03.618Z,20.93
2018-09-14T08:40:33.268Z,20.60
2018-09-14T08:43:01.836Z,22.43
2018-09-14T08:45:30.460Z,22.33
2018-09-14T08:47:59.146Z,21.37
2018-09-14T08:50:27.699Z,22.50
2018-09-14T08:52:56.388Z,22.53
2018-09-14T08:55:24.965Z,22.53
2018-09-14T08:57:54.539Z,22.60
2018-09-14T09:00:25.610Z,20.73
2018-09-14T09:02:54.977Z,21.93
2018-09-14T09:05:24.423Z,21.10
2018-09-14T09:07:52.927Z,22.33
2018-09-14T09:10:21.462Z,19.33
2018-09-14T09:12:50.149Z,19.13
2018-09-14T09:15:18.832Z,16.93
2018-09-14T09:17:47.415Z,16.47
2018-09-14T09:20:15.855Z,16.33
2018-09-14T09:22:44.381Z,16.43
2018-09-14T09:25:13.077Z,17.50
2018-09-14T09:27:41.591Z,16.83
2018-09-14T09:30:10.082Z,12.30
2018-09-14T09:32:38.639Z,15.30
2018-09-14T09:35:07.224Z,14.50
2018-09-14T09:37:36.303Z,14.87
2018-09-14T09:40:04.884Z,14.30
2018-09-14T09:42:33.706Z,16.43
2018-09-14T09:45:02.235Z,16.07
2018-09-14T09:47:30.792Z,14.23
2018-09-14T09:49:59.323Z,15.80
2018-09-14T09:52:27.887Z,16.43
2018-09-14T09:54:56.809Z,16.80
2018-09-14T09:57:25.367Z,17.73
2018-09-14T09:59:53.856Z,19.37
2018-09-14T10:02:27.823Z,19.87
2018-09-14T10:05:01.545Z,22.40
2018-09-14T10:07:30.603Z,22.00
2018-09-14T10:09:59.195Z,20.93
2018-09-14T10:12:29.847Z,20.07
2018-09-14T10:14:58.617Z,22.83
2018-09-14T10:17:27.604Z,21.80
2018-09-14T10:19:56.635Z,21.77
2018-09-14T10:22:25.132Z,22.00
2018-09-14T10:24:53.667Z,21.83
2018-09-14T10:27:22.349Z,19.57
2018-09-14T10:29:51.781Z,20.10
2018-09-14T10:32:23.756Z,19.43
2018-09-14T10:34:52.665Z,21.30
2018-09-14T10:37:21.196Z,20.53
2018-09-14T10:39:52.283Z,19.37
2018-09-14T10:42:20.824Z,17.97
2018-09-14T10:44:49.403Z,20.50
2018-09-14T10:47:18.209Z,17.90
2018-09-14T10:49:46.807Z,14.50
2018-09-14T10:52:15.324Z,12.63
2018-09-14T10:54:43.951Z,12.47
2018-09-14T10:57:12.616Z,8.47
2018-09-14T10:59:41.140Z,9.53
2018-09-14T11:02:09.706Z,9.80
2018-09-14T11:04:38.185Z,10.17
2018-09-14T11:07:13.162Z,7.17
2018-09-14T11:09:46.382Z,8.00
2018-09-14T11:12:20.554Z,6.70
2018-09-14T11:14:49.263Z,5.43
2018-09-14T11:17:17.780Z,7.30
2018-09-14T11:19:46.375Z,5.73
2018-09-14T11:22:14.953Z,6.03
2018-09-14T11:24:43.745Z,6.30
2018-09-14T11:27:12.796Z,8.27
2018-09-14T11:29:41.303Z,8.50
2018-09-14T11:32:09.872Z,7.80
2018-09-14T11:34:38.458Z,7.17
2018-09-14T11:37:07.253Z,7.67
2018-09-14T11:39:35.753Z,7.03
2018-09-14T11:42:04.300Z,6.30
2018-09-14T11:44:38.056Z,7.63
2018-09-14T11:47:06.869Z,7.37
2018-09-14T11:49:35.399Z,7.27
2018-09-14T11:52:04.098Z,7.20
2018-09-14T11:54:32.850Z,7.13
2018-09-14T11:57:01.573Z,6.80
2018-09-14T11:59:30.134Z,6.70
2018-09-14T12:02:02.036Z,6.07
2018-09-14T12:04:30.771Z,6.97
2018-09-14T12:06:59.628Z,6.67
2018-09-14T12:09:28.228Z,6.30
2018-09-14T12:11:56.797Z,6.90
2018-09-14T12:14:25.667Z,6.50
2018-09-14T12:16:54.172Z,7.10
2018-09-14T12:19:26.851Z,7.63
2018-09-14T12:21:56.615Z,8.00
2018-09-14T12:24:25.324Z,7.43
2018-09-14T12:26:54.809Z,8.80
2018-09-14T12:29:23.284Z,7.73
2018-09-14T12:31:51.760Z,7.80
2018-09-14T12:34:20.378Z,8.83
2018-09-14T12:36:48.947Z,9.90
2018-09-14T12:39:17.791Z,10.50
2018-09-14T12:41:46.329Z,9.87
2018-09-14T12:44:15.084Z,8.53
2018-09-14T12:46:44.138Z,9.37
2018-09-14T12:49:13.108Z,9.87
2018-09-14T12:51:50.754Z,10.27
2018-09-14T12:54:19.364Z,9.80
2018-09-14T12:56:48.187Z,9.57
2018-09-14T12:59:16.843Z,9.53
2018-09-14T13:01:45.414Z,9.47
2018-09-14T13:04:14.160Z,10.70
2018-09-14T13:06:42.683Z,9.87
2018-09-14T13:09:12.306Z,11.33
2018-09-14T13:11:41.514Z,9.53
2018-09-14T13:14:10.137Z,8.73
2018-09-14T13:16:38.913Z,8.07
2018-09-14T13:19:07.473Z,7.80
2018-09-14T13:21:36.000Z,8.03
2018-09-14T13:24:04.651Z,9.27
2018-09-14T13:26:33.121Z,8.07
2018-09-14T13:29:01.884Z,7.83
2018-09-14T13:31:30.527Z,6.97
2018-09-14T13:33:59.249Z,6.47
2018-09-14T13:36:27.791Z,7.53
2018-09-14T13:38:56.449Z,6.60
2018-09-14T13:41:24.968Z,7.40
2018-09-14T13:43:53.540Z,7.13
2018-09-14T13:46:22.061Z,6.20
2018-09-14T13:48:50.985Z,5.43
2018-09-14T13:51:19.585Z,6.07
2018-09-14T13:53:48.120Z,5.83
2018-09-14T13:56:16.676Z,5.60
2018-09-14T13:58:45.308Z,5.47
2018-09-14T14:01:13.926Z,5.03
2018-09-14T14:03:42.890Z,4.90
2018-09-14T14:06:11.479Z,5.30
2018-09-14T14:08:40.057Z,5.40
2018-09-14T14:11:08.804Z,5.50
2018-09-14T14:13:37.749Z,5.00
2018-09-14T14:16:06.388Z,4.90
2018-09-14T14:18:39.148Z,4.70
2018-09-14T14:21:07.896Z,4.60
2018-09-14T14:23:36.374Z,3.70
2018-09-14T14:26:06.088Z,4.43
2018-09-14T14:28:34.750Z,4.20
2018-09-14T14:31:04.485Z,4.80
2018-09-14T14:33:33.045Z,4.17
2018-09-14T14:36:01.787Z,4.37
2018-09-14T14:38:31.653Z,3.83
2018-09-14T14:41:02.620Z,3.67
2018-09-14T14:43:31.262Z,4.80
2018-09-14T14:46:00.328Z,4.87
2018-09-14T14:48:28.963Z,4.73
2018-09-14T14:50:58.882Z,4.77
2018-09-14T14:53:28.101Z,5.30
2018-09-14T14:55:57.640Z,4.10
2018-09-14T14:58:26.631Z,3.80
2018-09-14T15:00:55.200Z,3.63
2018-09-14T15:03:23.918Z,4.27
2018-09-14T15:05:52.679Z,5.00
2018-09-14T15:08:21.175Z,4.93
2018-09-14T15:10:49.881Z,4.70
2018-09-14T15:13:18.412Z,4.47
2018-09-14T15:15:46.961Z,3.83
2018-09-14T15:18:15.463Z,3.60
2018-09-14T15:20:44.001Z,3.40
2018-09-14T15:23:12.501Z,3.50
2018-09-14T15:25:41.184Z,3.73
2018-09-14T15:28:09.802Z,4.23
2018-09-14T15:30:38.815Z,3.90
2018-09-14T15:33:07.832Z,3.60
2018-09-14T15:35:36.797Z,3.57
2018-09-14T15:38:05.552Z,3.83
2018-09-14T15:40:34.155Z,3.03
2018-09-14T15:43:02.767Z,4.07
2018-09-14T15:45:31.355Z,3.90
2018-09-14T15:48:04.292Z,3.50
2018-09-14T15:50:33.858Z,3.70
2018-09-14T15:53:02.891Z,3.40
2018-09-14T15:55:32.061Z,3.50
2018-09-14T15:58:00.737Z,3.37
2018-09-14T16:00:29.528Z,3.63
2018-09-14T16:02:58.289Z,2.47
2018-09-14T16:05:27.046Z,3.40
2018-09-14T16:07:56.056Z,3.10
2018-09-14T16:10:25.338Z,2.77
2018-09-14T16:12:53.899Z,3.10
2018-09-14T16:15:22.805Z,3.40
2018-09-14T16:17:51.339Z,3.07
2018-09-14T16:20:19.861Z,3.10
2018-09-14T16:22:48.369Z,2.67
2018-09-14T16:25:16.955Z,2.30
2018-09-14T16:27:45.478Z,2.00
2018-09-14T16:30:14.052Z,2.33
2018-09-14T16:32:42.581Z,2.40
2018-09-14T16:35:11.734Z,2.50
2018-09-14T16:37:40.256Z,2.60
2018-09-14T16:40:08.817Z,2.33
2018-09-14T16:42:37.394Z,2.40
2018-09-14T16:45:06.971Z,2.80
2018-09-14T16:47:35.776Z,2.30
2018-09-14T16:50:04.445Z,2.73
2018-09-14T16:52:33.192Z,2.80
2018-09-14T16:55:02.131Z,2.40
2018-09-14T16:57:31.000Z,2.20
2018-09-14T16:59:59.727Z,2.80
2018-09-14T17:02:28.389Z,2.80
2018-09-14T17:04:56.939Z,2.70
2018-09-14T17:07:25.756Z,2.40
2018-09-14T17:09:54.321Z,2.40
2018-09-14T17:12:23.132Z,2.43
2018-09-14T17:14:51.726Z,2.57
2018-09-14T17:17:20.296Z,2.77
2018-09-14T17:19:48.880Z,2.97
2018-09-14T17:22:17.393Z,2.83
2018-09-14T17:24:45.944Z,2.63
2018-09-14T17:27:14.528Z,2.57
2018-09-14T17:29:43.462Z,2.40
2018-09-14T17:32:12.067Z,2.77
2018-09-14T17:34:40.583Z,2.30
2018-09-14T17:37:09.085Z,2.47
2018-09-14T17:39:37.669Z,2.50
2018-09-14T17:42:06.188Z,2.60
2018-09-14T17:44:34.801Z,2.70
2018-09-14T17:47:03.405Z,2.97
2018-09-14T17:49:32.037Z,2.93
2018-09-14T17:52:00.604Z,2.90
2018-09-14T17:54:29.236Z,3.07
2018-09-14T17:56:57.784Z,2.90
2018-09-14T17:59:26.450Z,3.43
2018-09-14T18:01:54.927Z,3.30
2018-09-14T18:04:23.430Z,3.50
2018-09-14T18:06:51.953Z,3.50
2018-09-14T18:09:20.581Z,4.53
2018-09-14T18:11:49.101Z,4.53
2018-09-14T18:14:17.855Z,4.90
2018-09-14T18:16:46.345Z,4.63
2018-09-14T18:19:14.884Z,4.87
2018-09-14T18:21:43.426Z,5.23
2018-09-14T18:24:11.929Z,5.30
2018-09-14T18:26:40.485Z,5.30
2018-09-14T18:29:09.011Z,5.63
2018-09-14T18:31:37.495Z,5.30
2018-09-14T18:34:06.084Z,5.77
2018-09-14T18:36:34.604Z,5.67
2018-09-14T18:39:03.454Z,5.13
2018-09-14T18:41:32.206Z,5.30
2018-09-14T18:44:00.732Z,5.37
2018-09-14T18:46:29.314Z,5.10
2018-09-14T18:48:57.839Z,4.83
2018-09-14T18:51:26.320Z,4.57
2018-09-14T18:53:54.813Z,5.73
2018-09-14T18:56:23.473Z,4.70
2018-09-14T18:58:52.150Z,4.57
2018-09-14T19:01:20.681Z,4.90
2018-09-14T19:03:49.322Z,4.30
2018-09-14T19:06:17.869Z,3.77
2018-09-14T19:08:46.336Z,3.93
2018-09-14T19:11:14.883Z,3.80
2018-09-14T19:13:43.396Z,3.50
2018-09-14T19:16:11.844Z,3.43
2018-09-14T19:18:40.320Z,3.83
2018-09-14T19:21:08.919Z,4.40
2018-09-14T19:23:37.559Z,4.03
2018-09-14T19:26:06.093Z,4.30
2018-09-14T19:28:34.553Z,4.23
2018-09-14T19:31:03.358Z,5.63
2018-09-14T19:33:32.004Z,4.90
2018-09-14T19:36:00.644Z,5.70
2018-09-14T19:38:29.612Z,10.97
2018-09-14T19:40:58.117Z,8.90
2018-09-14T19:43:27.716Z,8.70
2018-09-14T19:45:56.490Z,11.97
2018-09-14T19:48:24.970Z,17.03
2018-09-14T19:50:53.472Z,18.63
2018-09-14T19:53:22.075Z,17.37
2018-09-14T19:55:50.555Z,13.63
2018-09-14T19:58:19.082Z,11.00
2018-09-14T20:00:48.005Z,10.90
2018-09-14T20:03:16.583Z,11.23
2018-09-14T20:05:45.248Z,11.13
2018-09-14T20:08:13.729Z,11.40
2018-09-14T20:10:42.266Z,9.27
2018-09-14T20:13:10.725Z,9.77
2018-09-14T20:15:39.244Z,10.40
2018-09-14T20:18:07.796Z,8.93
2018-09-14T20:20:36.284Z,9.63
2018-09-14T20:23:04.746Z,9.43
2018-09-14T20:25:33.252Z,8.83
2018-09-14T20:28:01.810Z,9.13
2018-09-14T20:30:30.567Z,8.23
2018-09-14T20:32:59.084Z,9.13
2018-09-14T20:35:27.656Z,8.80
2018-09-14T20:37:56.161Z,9.53
2018-09-14T20:40:24.688Z,9.70
2018-09-14T20:42:53.184Z,8.80
2018-09-14T20:45:21.620Z,10.10
2018-09-14T20:47:50.148Z,9.10
2018-09-14T20:50:18.756Z,8.73
2018-09-14T20:52:47.316Z,9.27
2018-09-14T20:55:15.919Z,8.47
2018-09-14T20:57:44.432Z,8.47
2018-09-14T21:00:17.240Z,9.17
2018-09-14T21:02:46.168Z,8.97
2018-09-14T21:05:14.811Z,9.20
2018-09-14T21:07:43.400Z,10.00
2018-09-14T21:10:11.928Z,8.83
2018-09-14T21:12:40.403Z,8.87
2018-09-14T21:15:08.988Z,8.77
2018-09-14T21:17:37.568Z,8.97
2018-09-14T21:20:06.108Z,10.73
2018-09-14T21:22:34.597Z,12.47
2018-09-14T21:25:03.209Z,13.43
2018-09-14T21:27:31.788Z,13.53
2018-09-14T21:30:00.336Z,13.97
2018-09-14T21:32:28.858Z,13.43
2018-09-14T21:34:57.398Z,12.00
2018-09-14T21:37:26.084Z,9.43
2018-09-14T21:39:54.698Z,10.77
2018-09-14T21:42:23.301Z,9.40
2018-09-14T21:44:51.810Z,9.77
2018-09-14T21:47:20.724Z,9.20
2018-09-14T21:49:49.224Z,8.37
2018-09-14T21:52:17.724Z,9.80
2018-09-14T21:54:46.256Z,10.30
2018-09-14T21:57:14.848Z,9.93
2018-09-14T21:59:43.356Z,9.40
2018-09-14T22:02:11.864Z,9.37
2018-09-14T22:04:40.389Z,9.20
2018-09-14T22:07:09.468Z,9.13
2018-09-14T22:09:38.036Z,8.90
2018-09-14T22:12:06.669Z,9.07
2018-09-14T22:14:35.197Z,8.03
2018-09-14T22:17:03.700Z,8.67
2018-09-14T22:19:32.453Z,8.63
2018-09-14T22:22:00.997Z,8.50
2018-09-14T22:24:29.501Z,8.27
2018-09-14T22:26:58.075Z,8.63
2018-09-14T22:29:26.646Z,8.40
2018-09-14T22:31:55.316Z,8.10
2018-09-14T22:34:28.427Z,7.97
2018-09-14T22:36:57.012Z,8.03
2018-09-14T22:39:25.625Z,7.80
2018-09-14T22:41:54.239Z,8.03
2018-09-14T22:44:22.793Z,7.80
2018-09-14T22:46:51.397Z,7.13
2018-09-14T22:49:19.899Z,7.03
2018-09-14T22:51:52.165Z,7.00
2018-09-14T22:54:20.674Z,6.60
2018-09-14T22:56:49.248Z,7.03
2018-09-14T22:59:17.776Z,6.87
2018-09-14T23:01:49.458Z,6.50
2018-09-14T23:04:19.188Z,6.80
2018-09-14T23:06:47.756Z,6.33
2018-09-14T23:09:16.434Z,6.93
2018-09-14T23:11:45.009Z,6.77
2018-09-14T23:14:21.261Z,6.80
2018-09-14T23:16:49.790Z,6.57
2018-09-14T23:19:18.690Z,6.80
2018-09-14T23:21:47.193Z,6.40
2018-09-14T23:24:16.804Z,6.40
2018-09-14T23:26:45.421Z,5.80
2018-09-14T23:29:13.928Z,6.33
2018-09-14T23:31:42.600Z,6.37
2018-09-14T23:34:18.886Z,6.80
2018-09-14T23:36:47.444Z,5.97
2018-09-14T23:39:16.168Z,6.60
2018-09-14T23:41:44.742Z,6.70
2018-09-14T23:44:13.305Z,6.10
2018-09-14T23:46:41.865Z,7.07
2018-09-14T23:49:10.449Z,7.27
2018-09-14T23:51:39.068Z,7.83
2018-09-14T23:54:18.825Z,7.00
2018-09-14T23:56:47.361Z,7.27
2018-09-14T23:59:15.936Z,7.67
